createdAt,value
2018-09-03T00:00:47.177Z,93843.28
2018-09-03T00:15:50.956Z,93835.65
2018-09-03T00:30:58.849Z,93829.81
2018-09-03T00:46:07.770Z,93824.04
2018-09-03T01:01:11.569Z,93809.12
2018-09-03T01:16:15.355Z,93820.70
2018-09-03T01:31:19.807Z,93824.03
2018-09-03T01:46:23.739Z,93821.56
2018-09-03T02:01:27.557Z,93801.86
2018-09-03T02:16:31.322Z,93796.30
2018-09-03T02:31:35.130Z,93797.37
2018-09-03T02:46:38.908Z,93768.09
2018-09-03T03:01:42.704Z,93767.55
2018-09-03T03:16:46.487Z,93761.06
2018-09-03T03:31:50.309Z,93763.57
2018-09-03T03:46:54.097Z,93749.52
2018-09-03T04:01:57.959Z,93765.53
2018-09-03T04:17:01.710Z,93750.96
2018-09-03T04:32:05.535Z,93728.05
2018-09-03T04:47:10.606Z,93723.30
2018-09-03T05:02:14.487Z,93719.64
2018-09-03T05:17:18.236Z,93713.56
2018-09-03T05:32:21.985Z,93724.62
2018-09-03T05:47:25.751Z,93732.14
2018-09-03T06:02:29.595Z,93730.09
2018-09-03T06:17:33.552Z,93745.52
2018-09-03T06:32:37.400Z,93736.88
2018-09-03T06:47:41.257Z,93726.77
2018-09-03T07:02:45.117Z,93722.68
2018-09-03T07:17:49.619Z,93725.74
2018-09-03T07:32:53.391Z,93717.79
2018-09-03T07:47:57.435Z,93713.36
2018-09-03T08:03:01.381Z,93698.63
2018-09-03T08:18:05.222Z,93689.83
2018-09-03T08:33:09.343Z,93680.61
2018-09-03T08:48:14.047Z,93634.09
2018-09-03T09:03:23.037Z,93626.63
2018-09-03T09:18:26.786Z,93626.54
2018-09-03T09:33:30.589Z,93612.14
2018-09-03T09:48:36.498Z,93580.85
2018-09-03T10:03:40.225Z,93565.36
2018-09-03T10:18:43.954Z,93561.47
2018-09-03T10:33:47.707Z,93538.31
2018-09-03T10:48:52.574Z,93527.84
2018-09-03T11:03:56.322Z,93516.34
2018-09-03T11:19:33.219Z,93513.61
2018-09-03T12:06:29.435Z,93522.02
2018-09-03T12:21:33.250Z,93516.00
2018-09-03T12:36:36.982Z,93502.58
2018-09-03T12:51:40.719Z,93518.77
2018-09-03T13:06:44.471Z,93511.41
2018-09-03T13:21:48.229Z,93456.72
2018-09-03T13:36:51.984Z,93420.02
2018-09-03T13:51:55.752Z,93410.43
2018-09-03T14:06:59.509Z,93412.44
2018-09-03T14:22:03.242Z,93410.59
2018-09-03T14:37:07.092Z,93416.54
2018-09-03T14:52:10.969Z,93416.05
2018-09-03T15:07:16.003Z,93408.19
2018-09-03T15:22:19.819Z,93409.67
2018-09-03T15:37:24.578Z,93419.04
2018-09-03T15:52:28.680Z,93418.20
2018-09-03T16:07:32.651Z,93440.31
2018-09-03T16:22:36.429Z,93442.66
2018-09-03T16:37:41.014Z,93462.14
2018-09-03T16:52:44.755Z,93457.92
2018-09-03T17:07:48.595Z,93445.34
2018-09-03T17:22:52.284Z,93428.16
2018-09-03T17:37:56.032Z,93432.45
2018-09-03T17:52:59.786Z,93442.13
2018-09-03T18:08:03.523Z,93439.30
2018-09-03T18:23:07.365Z,93459.09
2018-09-03T18:38:11.995Z,93447.78
2018-09-03T18:53:15.780Z,93428.83
2018-09-03T19:08:20.021Z,93477.34
2018-09-03T19:23:23.813Z,93480.34
2018-09-03T19:38:27.605Z,93498.87
2018-09-03T19:53:31.424Z,93522.07
2018-09-03T20:08:35.350Z,93513.49
2018-09-03T20:23:39.263Z,93498.77
2018-09-03T20:38:42.879Z,93541.25
2018-09-03T20:53:46.626Z,93521.18
2018-09-03T21:08:50.398Z,93502.56
2018-09-03T21:23:54.155Z,93515.12
2018-09-03T21:38:58.011Z,93502.34
2018-09-03T21:54:01.698Z,93505.16
2018-09-03T22:09:06.510Z,93499.95
2018-09-03T22:24:10.226Z,93492.08
2018-09-03T22:39:14.456Z,93471.59
2018-09-03T22:54:18.205Z,93442.97
2018-09-03T23:09:22.090Z,93440.94
2018-09-03T23:24:25.867Z,93431.68
2018-09-03T23:39:29.598Z,93440.70
2018-09-03T23:54:33.323Z,93435.62
